Farmersville, Ohio
Current Conditions -  °F | °C
As of 6:15 AM on Monday 20 Oct 2014 (Local Time) from KMWO Reporting Station
Broken Clouds Broken Clouds  
Wind Chill: 49°   Ceiling: 12000
Heat Index: 49°   Visibility: 10mi
Dew Point: 45°   Wind: 3mph
Humidity: 85%   Direction: 230°SW
Pressure: 30.01"   Gusts: NA
Location:  39.68°N, 84.43°W
Report Text: KMWO 201015Z AUTO 23003KT 10SM BKN120 10/07 A3001 RMK AO2 T00960072
Loading
Personal Weather Stations






























Interactive Weather Map
Tropical Storm Tracking
New forecast layout! Learn more

10-Day Weather Forecast

Advertisements
Track Severe Weather on mobile